createdAt,value
2022-08-07T00:00:25.117Z,14.5
2022-08-07T00:05:25.108Z,13.5
2022-08-07T00:10:25.812Z,15.1
2022-08-07T00:15:25.121Z,15.8
2022-08-07T00:20:29.670Z,16.6
2022-08-07T00:25:25.115Z,14.8
2022-08-07T00:30:27.834Z,14.1
2022-08-07T00:35:25.111Z,11.2
2022-08-07T00:40:36.851Z,15
2022-08-07T00:45:25.109Z,12.2
2022-08-07T00:50:43.851Z,11.9
2022-08-07T00:55:25.642Z,10.3
2022-08-07T01:00:25.123Z,11.5
2022-08-07T01:05:25.127Z,11.7
2022-08-07T01:10:25.119Z,10.8
2022-08-07T01:15:35.579Z,13.2
2022-08-07T01:20:25.128Z,12.9
2022-08-07T01:25:40.702Z,12.1
2022-08-07T01:30:27.100Z,13.6
2022-08-07T01:35:25.111Z,12.4
2022-08-07T01:40:25.113Z,13.1
2022-08-07T01:45:26.633Z,13.1
2022-08-07T01:50:28.770Z,12.2
2022-08-07T01:55:25.115Z,12.4
2022-08-07T02:00:28.596Z,11.4
2022-08-07T02:05:42.913Z,12.9
2022-08-07T02:10:25.143Z,12.4
2022-08-07T02:15:25.393Z,10.3
2022-08-07T02:20:25.122Z,10.8
2022-08-07T02:25:32.301Z,11.3
2022-08-07T02:30:25.118Z,11.4
2022-08-07T02:36:27.672Z,13.1
2022-08-07T02:40:30.401Z,12.7
2022-08-07T02:45:57.790Z,12
2022-08-07T02:50:25.108Z,14.6
2022-08-07T02:55:28.219Z,11.8
2022-08-07T03:00:25.297Z,15
2022-08-07T03:05:25.126Z,15.4
2022-08-07T03:10:25.125Z,13
2022-08-07T03:15:28.030Z,13
2022-08-07T03:20:25.115Z,12
2022-08-07T03:25:25.458Z,14.5
2022-08-07T03:30:25.129Z,14.5
2022-08-07T03:35:26.183Z,13.4
2022-08-07T03:40:27.604Z,15.6
2022-08-07T03:45:30.470Z,15.6
2022-08-07T03:50:25.141Z,15.6
2022-08-07T03:55:53.239Z,17.2
2022-08-07T04:00:29.064Z,17.2
2022-08-07T04:05:28.872Z,15.7
2022-08-07T04:10:25.112Z,15.9
2022-08-07T04:15:25.116Z,13.8
2022-08-07T04:20:25.354Z,15.9
2022-08-07T04:25:25.109Z,17.8
2022-08-07T04:30:36.172Z,14.3
2022-08-07T04:35:25.113Z,14.4
2022-08-07T04:40:26.843Z,15.9
2022-08-07T04:45:44.612Z,15.3
2022-08-07T04:50:25.121Z,14.1
2022-08-07T04:58:08.526Z,14.9
2022-08-07T05:00:30.539Z,14.2
2022-08-07T05:05:52.522Z,16.7
2022-08-07T05:10:25.125Z,17.9
2022-08-07T05:15:25.113Z,16.5
2022-08-07T05:20:25.575Z,17.2
2022-08-07T05:25:25.468Z,16.1
2022-08-07T05:30:30.066Z,15
2022-08-07T05:35:33.278Z,17.3
2022-08-07T05:40:25.152Z,21.8
2022-08-07T05:45:26.461Z,21.8
2022-08-07T05:50:25.118Z,15.7
2022-08-07T05:55:25.111Z,16.5
2022-08-07T06:00:25.154Z,15.4
2022-08-07T06:05:25.790Z,14.5
2022-08-07T06:10:25.109Z,18.8
2022-08-07T06:15:39.551Z,15.1
2022-08-07T06:20:25.771Z,14.7
2022-08-07T06:25:25.117Z,14.7
2022-08-07T06:30:35.364Z,16.5
2022-08-07T06:35:25.117Z,16.1
2022-08-07T06:40:25.157Z,16.4
2022-08-07T06:45:25.104Z,16.1
2022-08-07T06:50:25.181Z,15.8
2022-08-07T06:55:30.808Z,17.4
2022-08-07T07:00:25.156Z,16.1
2022-08-07T07:06:02.121Z,19.7
2022-08-07T07:10:26.551Z,15.8
2022-08-07T07:15:26.473Z,17.4
2022-08-07T07:20:25.118Z,13.6
2022-08-07T07:26:30.936Z,13.4
2022-08-07T07:30:26.464Z,18.8
2022-08-07T07:35:25.119Z,20.2
2022-08-07T07:40:25.309Z,19.6
2022-08-07T07:46:36.183Z,12.6
2022-08-07T07:50:31.772Z,12.7
2022-08-07T07:55:25.115Z,15.9
2022-08-07T08:00:29.287Z,10
2022-08-07T08:05:25.123Z,18.7
2022-08-07T08:10:35.441Z,10.7
2022-08-07T08:15:25.137Z,18.2
2022-08-07T08:20:31.714Z,18.4
2022-08-07T08:25:42.127Z,16
2022-08-07T08:30:25.121Z,19.4
2022-08-07T08:35:25.108Z,13.9
2022-08-07T08:40:28.342Z,20.4
2022-08-07T08:45:26.790Z,14.3
2022-08-07T08:50:28.541Z,17.6
2022-08-07T08:55:54.037Z,19.4
2022-08-07T09:00:25.121Z,16.8
2022-08-07T09:05:32.203Z,10.8
2022-08-07T09:10:25.121Z,18.7
2022-08-07T09:16:21.366Z,17.9
2022-08-07T09:20:35.137Z,13.6
2022-08-07T09:25:25.112Z,13.6
2022-08-07T09:30:25.427Z,15.6
2022-08-07T09:36:00.775Z,20.8
2022-08-07T09:40:25.228Z,16.8
2022-08-07T09:46:11.282Z,16.8
2022-08-07T09:50:26.389Z,16.9
2022-08-07T09:55:29.169Z,24.4
2022-08-07T10:00:29.977Z,14.5
2022-08-07T10:05:29.455Z,22.1
2022-08-07T10:10:25.113Z,18.6
2022-08-07T10:15:25.115Z,15.1
2022-08-07T10:20:30.656Z,23.7
2022-08-07T10:25:33.009Z,20.2
2022-08-07T10:30:25.113Z,17.4
2022-08-07T10:35:25.612Z,15.2
2022-08-07T10:40:25.119Z,17
2022-08-07T10:45:44.326Z,26.9
2022-08-07T10:50:25.776Z,24.3
2022-08-07T10:55:26.874Z,24.9
2022-08-07T11:00:36.279Z,27.1
2022-08-07T11:05:25.117Z,28
2022-08-07T11:10:27.406Z,20.2
2022-08-07T11:15:26.401Z,19.8
2022-08-07T11:20:25.119Z,21.3
2022-08-07T11:25:25.110Z,24.9
2022-08-07T11:30:39.245Z,21.4
2022-08-07T11:35:26.930Z,16.4
2022-08-07T11:40:27.664Z,19.3
2022-08-07T11:45:29.934Z,25.2
2022-08-07T11:50:32.106Z,22.8
2022-08-07T11:56:09.801Z,26.3
2022-08-07T12:00:27.688Z,14.9
2022-08-07T12:05:28.398Z,21.5
2022-08-07T12:10:25.109Z,21.5
2022-08-07T12:15:36.037Z,19.2
2022-08-07T12:20:29.975Z,24.3
2022-08-07T12:26:00.542Z,20.2
2022-08-07T12:30:25.126Z,14.8
2022-08-07T12:35:25.116Z,12.2
2022-08-07T12:40:45.141Z,24.2
2022-08-07T12:45:25.174Z,17.8
2022-08-07T12:50:34.622Z,17.9
2022-08-07T12:55:40.933Z,13.8
2022-08-07T13:00:31.171Z,28.5
2022-08-07T13:06:04.161Z,25.3
2022-08-07T13:10:37.459Z,15
2022-08-07T13:15:29.274Z,12.9
2022-08-07T13:20:27.621Z,20.3
2022-08-07T13:25:28.698Z,16.7
2022-08-07T13:30:40.779Z,18.5
2022-08-07T13:35:25.106Z,15.4
2022-08-07T13:40:34.753Z,18.9
2022-08-07T13:46:07.437Z,23.5
2022-08-07T13:55:25.739Z,8.5
2022-08-07T14:00:26.532Z,13.4
2022-08-07T14:05:25.209Z,15
2022-08-07T14:10:28.110Z,17.6
2022-08-07T14:15:25.108Z,14.9
2022-08-07T14:20:41.318Z,23
2022-08-07T14:25:25.105Z,15.6
2022-08-07T14:30:27.677Z,15.6
2022-08-07T14:35:42.811Z,12.1
2022-08-07T14:40:26.187Z,22.7
2022-08-07T14:45:25.112Z,21.3
2022-08-07T14:50:25.117Z,21.3
2022-08-07T14:55:25.103Z,18.9
2022-08-07T15:00:29.601Z,9.3
2022-08-07T15:05:25.104Z,11.9
2022-08-07T15:10:26.743Z,16.8
2022-08-07T15:15:25.109Z,21
2022-08-07T15:20:32.301Z,21
2022-08-07T15:25:25.103Z,18
2022-08-07T15:30:25.116Z,16.5
2022-08-07T15:35:40.733Z,14.5
2022-08-07T15:45:25.109Z,16.7
2022-08-07T15:50:37.365Z,15.2
2022-08-07T15:55:25.113Z,16.5
2022-08-07T16:00:32.251Z,17.4
2022-08-07T16:05:31.098Z,11.9
2022-08-07T16:10:25.119Z,16
2022-08-07T16:15:42.027Z,15.4
2022-08-07T16:20:32.860Z,12.3
2022-08-07T16:25:52.941Z,16.2
2022-08-07T16:30:30.001Z,14.3
2022-08-07T16:35:52.184Z,9.7
2022-08-07T16:40:29.009Z,8
2022-08-07T16:46:21.567Z,10.3
2022-08-07T16:50:29.488Z,12.8
2022-08-07T16:55:25.111Z,9.9
2022-08-07T17:00:29.263Z,16.1
2022-08-07T17:06:01.593Z,19.8
2022-08-07T17:10:30.318Z,15.5
2022-08-07T17:15:43.595Z,11.9
2022-08-07T17:20:29.587Z,12.6
2022-08-07T17:25:45.711Z,9.8
2022-08-07T17:30:26.475Z,11
2022-08-07T17:35:40.315Z,11.2
2022-08-07T17:40:30.330Z,8.6
2022-08-07T17:45:25.114Z,14
2022-08-07T17:50:30.354Z,10.8
2022-08-07T17:55:55.684Z,9.4
2022-08-07T18:00:33.477Z,8.7
2022-08-07T18:05:25.120Z,7.4
2022-08-07T18:10:29.239Z,7.4
2022-08-07T18:15:32.503Z,8.4
2022-08-07T18:21:05.520Z,9.4
2022-08-07T18:25:39.511Z,8.7
2022-08-07T18:30:31.014Z,8.7
2022-08-07T18:35:25.107Z,9.7
2022-08-07T18:40:39.790Z,10.3
2022-08-07T18:45:40.810Z,9.4
2022-08-07T18:50:33.689Z,10.8
2022-08-07T18:55:41.515Z,10.5
2022-08-07T19:00:33.563Z,9.7
2022-08-07T19:05:25.213Z,10.1
2022-08-07T19:10:31.039Z,11
2022-08-07T19:16:03.938Z,11.3
2022-08-07T19:20:29.400Z,11.8
2022-08-07T19:26:22.088Z,11.4
2022-08-07T19:30:59.006Z,11
2022-08-07T19:35:25.110Z,12.8
2022-08-07T19:40:30.723Z,12.8
2022-08-07T19:46:01.454Z,13.8
2022-08-07T19:50:40.757Z,11.1
2022-08-07T19:55:25.111Z,11.2
2022-08-07T20:00:28.665Z,11.4
2022-08-07T20:05:25.114Z,12.2
2022-08-07T20:10:34.989Z,14.3
2022-08-07T20:15:27.827Z,13.7
2022-08-07T20:20:26.366Z,16.7
2022-08-07T20:25:25.131Z,16
2022-08-07T20:30:25.120Z,18.1
2022-08-07T20:35:26.694Z,18.1
2022-08-07T20:40:31.710Z,18.9
2022-08-07T20:45:32.464Z,16.9
2022-08-07T20:50:25.125Z,16.8
2022-08-07T20:55:25.382Z,14.6
2022-08-07T21:00:25.117Z,14.5
2022-08-07T21:05:25.669Z,14.9
2022-08-07T21:10:29.898Z,14.9
2022-08-07T21:15:48.298Z,17.1
2022-08-07T21:20:27.019Z,17.1
2022-08-07T21:25:25.123Z,14.7
2022-08-07T21:30:25.119Z,19.4
2022-08-07T21:35:34.391Z,14.9
2022-08-07T21:40:25.172Z,17.1
2022-08-07T21:46:05.593Z,17.5
2022-08-07T21:50:25.114Z,16.7
2022-08-07T21:55:28.018Z,17.5
2022-08-07T22:00:25.665Z,15.5
2022-08-07T22:05:45.037Z,17.3
2022-08-07T22:10:26.120Z,16.9
2022-08-07T22:16:38.257Z,13.8
2022-08-07T22:20:25.117Z,16.2
2022-08-07T22:25:26.687Z,17.8
2022-08-07T22:30:26.508Z,18.1
2022-08-07T22:35:25.113Z,19.2
2022-08-07T22:40:25.124Z,19.9
2022-08-07T22:46:04.968Z,17.5
2022-08-07T22:50:28.936Z,16.5
2022-08-07T22:55:29.856Z,17.1
2022-08-07T23:00:28.287Z,21.4
2022-08-07T23:06:07.954Z,17.7
2022-08-07T23:10:35.131Z,20.8
2022-08-07T23:16:05.144Z,18.2
2022-08-07T23:20:40.364Z,17.7
2022-08-07T23:25:28.361Z,18.9
2022-08-07T23:30:36.579Z,16.3
2022-08-07T23:35:25.691Z,17.5
2022-08-07T23:40:25.117Z,17.1
2022-08-07T23:45:32.941Z,17.7
2022-08-07T23:50:25.114Z,16.2
2022-08-07T23:55:47.372Z,13.4
